Time;durP1;ratioP1;P1;durP2;ratioP2;P2;SDS_P1;SDS_P2;PMS_P1;PMS_P2;Temp;Humidity;BMP_temperature;BMP_pressure;BME280_temperature;BME280_humidity;BME280_pressure;Samples;Min_cycle;Max_cycle;Signal;HPM_P1;HPM_P2
2021/10/05 00:02:17;;;;;;;2.78;1.10;;;;;;;;;;4932946;28;20030;-60
2021/10/05 00:04:42;;;;;;;2.35;1.02;;;;;;;;;;4933390;28;20077;-61
2021/10/05 00:07:10;;;;;;;3.65;0.90;;;;;;;;;;4932527;28;20057;-61
2021/10/05 00:09:38;;;;;;;1.38;0.80;;;;;;;;;;4945227;28;20063;-61
2021/10/05 00:12:03;;;;;;;7.18;1.10;;;;;;;;;;4931645;28;20045;-61
2021/10/05 00:14:29;;;;;;;4.72;1.02;;;;;;;;;;4916956;28;20031;-61
2021/10/05 00:16:54;;;;;;;7.05;1.00;;;;;;;;;;4951376;28;20117;-61
2021/10/05 00:19:24;;;;;;;1.10;0.82;;;;;;;;;;4950289;28;20141;-61
2021/10/05 00:21:51;;;;;;;2.22;1.00;;;;;;;;;;4952241;28;20038;-60
2021/10/05 00:24:18;;;;;;;1.00;0.80;;;;;;;;;;4915186;28;20125;-61
2021/10/05 00:26:46;;;;;;;5.00;0.68;;;;;;;;;;4969260;28;20656;-61
2021/10/05 00:29:13;;;;;;;4.50;1.15;;;;;;;;;;4951102;28;20044;-61
2021/10/05 00:31:38;;;;;;;3.42;1.17;;;;;;;;;;4951322;28;20026;-61
2021/10/05 00:34:08;;;;;;;6.07;1.00;;;;;;;;;;4936251;28;20054;-61
2021/10/05 00:36:34;;;;;;;1.65;0.75;;;;;;;;;;4953120;28;20057;-61
2021/10/05 00:38:59;;;;;;;5.65;1.17;;;;;;;;;;4929185;28;20934;-61
2021/10/05 00:41:26;;;;;;;7.10;0.80;;;;;;;;;;4968743;28;20121;-61
2021/10/05 00:43:51;;;;;;;4.22;1.10;;;;;;;;;;4949618;28;20041;-62
2021/10/05 00:46:21;;;;;;;8.95;1.10;;;;;;;;;;4933590;28;22023;-60
2021/10/05 00:48:49;;;;;;;1.02;0.50;;;;;;;;;;4938846;28;20042;-61
2021/10/05 00:51:17;;;;;;;4.60;0.80;;;;;;;;;;4948977;28;20034;-61
2021/10/05 00:53:42;;;;;;;4.85;1.27;;;;;;;;;;4950553;28;20038;-60
2021/10/05 00:56:10;;;;;;;3.53;1.08;;;;;;;;;;4936659;28;20041;-61
2021/10/05 00:58:39;;;;;;;3.33;1.00;;;;;;;;;;4949252;28;20038;-61
2021/10/05 01:01:07;;;;;;;2.60;1.00;;;;;;;;;;4928236;28;20023;-60
2021/10/05 01:03:33;;;;;;;1.98;1.15;;;;;;;;;;4946603;28;20035;-62
2021/10/05 01:06:02;;;;;;;2.72;0.80;;;;;;;;;;4950314;28;20045;-61
2021/10/05 01:08:30;;;;;;;3.10;0.80;;;;;;;;;;4940318;28;20983;-60
2021/10/05 01:10:58;;;;;;;1.70;1.00;;;;;;;;;;4966359;28;20053;-61
2021/10/05 01:13:23;;;;;;;2.83;1.23;;;;;;;;;;4967335;28;20034;-61
2021/10/05 01:15:49;;;;;;;4.20;1.00;;;;;;;;;;4951810;28;20405;-60
2021/10/05 01:18:15;;;;;;;3.92;1.25;;;;;;;;;;4951339;28;20117;-61
2021/10/05 01:20:55;;;;;;;7.00;1.42;;;;;;;;;;4935727;28;20082;-60
2021/10/05 01:23:24;;;;;;;5.45;1.33;;;;;;;;;;4934324;28;20049;-61
2021/10/05 01:25:55;;;;;;;1.88;0.88;;;;;;;;;;4966215;28;20109;-60
2021/10/05 01:28:21;;;;;;;3.70;0.95;;;;;;;;;;4966732;28;20901;-61
2021/10/05 01:30:51;;;;;;;2.63;1.10;;;;;;;;;;4946378;28;20042;-61
2021/10/05 01:33:21;;;;;;;7.32;1.00;;;;;;;;;;4932115;28;20034;-60
2021/10/05 01:35:46;;;;;;;1.35;0.73;;;;;;;;;;4935494;28;20152;-61
2021/10/05 01:38:12;;;;;;;4.50;1.02;;;;;;;;;;4934438;28;20038;-61
2021/10/05 01:40:40;;;;;;;6.22;1.40;;;;;;;;;;4968030;28;20113;-59
2021/10/05 01:43:07;;;;;;;1.00;0.85;;;;;;;;;;4962087;28;20026;-60
2021/10/05 01:45:38;;;;;;;7.90;1.10;;;;;;;;;;4967155;28;20030;-60
2021/10/05 01:48:04;;;;;;;2.60;0.90;;;;;;;;;;4950609;28;20038;-61
2021/10/05 01:50:32;;;;;;;2.35;1.20;;;;;;;;;;4950892;28;20025;-61
2021/10/05 01:53:01;;;;;;;3.70;0.98;;;;;;;;;;4933862;28;20117;-61
2021/10/05 01:55:26;;;;;;;2.90;0.75;;;;;;;;;;4955712;28;20041;-62
2021/10/05 01:57:56;;;;;;;1.98;1.40;;;;;;;;;;4933501;28;20022;-61
2021/10/05 02:00:22;;;;;;;3.90;1.30;;;;;;;;;;4963912;28;20030;-61
2021/10/05 02:02:49;;;;;;;4.13;1.08;;;;;;;;;;4949487;28;20593;-60
2021/10/05 02:05:16;;;;;;;4.22;1.40;;;;;;;;;;4935082;28;20064;-61
2021/10/05 02:10:10;;;;;;;3.28;1.58;;;;;;;;;;4959094;28;20279;-60
2021/10/05 02:12:39;;;;;;;4.07;1.65;;;;;;;;;;4959732;28;20034;-62
2021/10/05 02:15:05;;;;;;;3.70;1.50;;;;;;;;;;4945231;28;20494;-62
2021/10/05 02:17:35;;;;;;;5.55;1.83;;;;;;;;;;4956618;28;21133;-61
2021/10/05 02:20:01;;;;;;;2.25;1.58;;;;;;;;;;4960293;28;20855;-60
2021/10/05 02:22:26;;;;;;;6.40;1.70;;;;;;;;;;4943214;28;20034;-60
2021/10/05 02:24:52;;;;;;;5.07;1.80;;;;;;;;;;4960735;28;20152;-60
2021/10/05 02:27:18;;;;;;;2.13;1.38;;;;;;;;;;4959582;28;20097;-61
2021/10/05 02:29:46;;;;;;;3.45;1.60;;;;;;;;;;4960853;28;20062;-61
2021/10/05 02:32:13;;;;;;;8.82;1.70;;;;;;;;;;4960243;28;20132;-60
2021/10/05 02:34:42;;;;;;;4.80;2.10;;;;;;;;;;4960429;28;20049;-61
2021/10/05 02:37:08;;;;;;;8.63;1.88;;;;;;;;;;4960385;28;20049;-61
2021/10/05 02:39:38;;;;;;;4.03;1.90;;;;;;;;;;4960991;28;21156;-60
2021/10/05 02:42:04;;;;;;;5.18;1.55;;;;;;;;;;4929492;28;20045;-60
2021/10/05 02:44:30;;;;;;;2.47;1.65;;;;;;;;;;4945411;28;20054;-60
2021/10/05 02:46:58;;;;;;;6.55;1.73;;;;;;;;;;4931665;28;20792;-60
2021/10/05 02:49:23;;;;;;;1.65;1.42;;;;;;;;;;4962083;28;20152;-58
2021/10/05 02:51:48;;;;;;;5.25;1.92;;;;;;;;;;4959825;28;20035;-60
2021/10/05 02:54:14;;;;;;;4.30;2.42;;;;;;;;;;4932396;28;20019;-61
2021/10/05 02:56:39;;;;;;;7.60;2.20;;;;;;;;;;4964677;28;20038;-61
2021/10/05 02:59:07;;;;;;;10.65;2.95;;;;;;;;;;4942802;28;20030;-61
2021/10/05 03:01:35;;;;;;;3.45;1.95;;;;;;;;;;4959914;28;20050;-60
2021/10/05 03:04:03;;;;;;;5.57;2.50;;;;;;;;;;4959230;28;20038;-60
2021/10/05 03:06:29;;;;;;;4.47;2.40;;;;;;;;;;4931913;28;20043;-60
2021/10/05 03:08:55;;;;;;;3.80;2.40;;;;;;;;;;4957926;28;20054;-60
2021/10/05 03:11:24;;;;;;;7.00;2.75;;;;;;;;;;4977159;28;20124;-62
2021/10/05 03:13:49;;;;;;;4.97;2.55;;;;;;;;;;4976982;28;20113;-61
2021/10/05 03:16:15;;;;;;;5.43;2.20;;;;;;;;;;4976452;28;20052;-60
2021/10/05 03:18:45;;;;;;;7.55;2.85;;;;;;;;;;4976703;28;20045;-61
2021/10/05 03:21:16;;;;;;;8.25;2.63;;;;;;;;;;4976829;28;20042;-61
2021/10/05 03:23:43;;;;;;;5.60;2.20;;;;;;;;;;4944835;28;20494;-61
2021/10/05 03:26:09;;;;;;;7.43;2.80;;;;;;;;;;4962553;28;20107;-60
2021/10/05 03:28:39;;;;;;;10.07;2.90;;;;;;;;;;4946925;28;20154;-60
2021/10/05 03:31:07;;;;;;;7.05;2.83;;;;;;;;;;4961960;28;20042;-60
2021/10/05 03:33:33;;;;;;;5.55;3.50;;;;;;;;;;4960755;28;20041;-62
2021/10/05 03:35:58;;;;;;;9.30;2.90;;;;;;;;;;4962385;28;20042;-61
2021/10/05 03:38:24;;;;;;;9.05;3.63;;;;;;;;;;4960524;28;20065;-61
2021/10/05 03:40:54;;;;;;;7.70;3.72;;;;;;;;;;4946810;28;20801;-61
2021/10/05 03:43:22;;;;;;;9.15;3.70;;;;;;;;;;4963927;28;20035;-63
2021/10/05 03:45:47;;;;;;;6.45;3.58;;;;;;;;;;4947966;28;20039;-60
2021/10/05 03:48:14;;;;;;;10.13;3.72;;;;;;;;;;4976409;28;20038;-59
2021/10/05 03:50:41;;;;;;;8.50;3.78;;;;;;;;;;4978898;28;20117;-60
2021/10/05 03:53:07;;;;;;;8.00;4.25;;;;;;;;;;4967316;28;20292;-60
2021/10/05 03:55:35;;;;;;;8.57;3.53;;;;;;;;;;4963983;28;20027;-59
2021/10/05 03:58:00;;;;;;;8.98;3.55;;;;;;;;;;4978125;28;20042;-59
2021/10/05 04:00:26;;;;;;;7.95;3.67;;;;;;;;;;4977630;28;20737;-59
2021/10/05 04:02:51;;;;;;;7.00;3.70;;;;;;;;;;4965339;28;20073;-61
2021/10/05 04:05:17;;;;;;;13.50;4.22;;;;;;;;;;4980321;28;20046;-60
2021/10/05 04:07:43;;;;;;;10.00;4.18;;;;;;;;;;4978034;28;20176;-63
2021/10/05 04:10:09;;;;;;;7.90;4.30;;;;;;;;;;4981358;28;20042;-62
2021/10/05 04:12:37;;;;;;;8.55;4.13;;;;;;;;;;4963750;28;20165;-59
2021/10/05 04:15:03;;;;;;;16.38;4.72;;;;;;;;;;4964839;28;20116;-59
2021/10/05 04:17:33;;;;;;;8.57;3.70;;;;;;;;;;4968623;28;20054;-60
2021/10/05 04:19:58;;;;;;;11.75;4.65;;;;;;;;;;4965280;28;20039;-61
2021/10/05 04:22:25;;;;;;;6.95;4.70;;;;;;;;;;4965103;28;20045;-60
2021/10/05 04:24:55;;;;;;;7.68;4.47;;;;;;;;;;4982550;28;20065;-59
2021/10/05 04:27:21;;;;;;;13.65;7.40;;;;;;;;;;4965542;28;20100;-60
2021/10/05 04:29:46;;;;;;;11.52;5.50;;;;;;;;;;4978897;28;20029;-60
2021/10/05 04:32:12;;;;;;;11.27;5.07;;;;;;;;;;4978192;28;20038;-60
2021/10/05 04:34:40;;;;;;;8.98;5.00;;;;;;;;;;4977896;28;20217;-61
2021/10/05 04:37:05;;;;;;;10.60;5.30;;;;;;;;;;4964014;28;20157;-60
2021/10/05 04:39:31;;;;;;;7.82;4.63;;;;;;;;;;4980149;28;20034;-60
2021/10/05 04:42:02;;;;;;;8.48;4.85;;;;;;;;;;4949442;28;20520;-61
2021/10/05 04:44:30;;;;;;;10.57;4.85;;;;;;;;;;4961039;28;20389;-60
2021/10/05 04:46:56;;;;;;;10.38;4.63;;;;;;;;;;4959257;28;20062;-60
2021/10/05 04:49:21;;;;;;;7.78;4.25;;;;;;;;;;4963316;28;20141;-60
2021/10/05 04:51:47;;;;;;;10.65;4.82;;;;;;;;;;4978877;28;21966;-60
2021/10/05 04:54:12;;;;;;;10.00;4.75;;;;;;;;;;4966760;28;20666;-60
2021/10/05 04:56:40;;;;;;;14.30;5.13;;;;;;;;;;4963269;28;20112;-60
2021/10/05 04:59:10;;;;;;;12.35;5.85;;;;;;;;;;4974079;28;20034;-61
2021/10/05 05:01:36;;;;;;;10.98;4.88;;;;;;;;;;4964062;28;20035;-61
2021/10/05 05:04:04;;;;;;;9.55;4.80;;;;;;;;;;4959758;28;20022;-60
2021/10/05 05:06:30;;;;;;;7.90;4.13;;;;;;;;;;4962242;28;20157;-61
2021/10/05 05:08:58;;;;;;;8.55;4.82;;;;;;;;;;4959333;28;20891;-60
2021/10/05 05:11:23;;;;;;;9.85;5.32;;;;;;;;;;4977823;28;20086;-59
2021/10/05 05:13:53;;;;;;;11.77;5.38;;;;;;;;;;4959984;28;20061;-60
2021/10/05 05:16:19;;;;;;;9.75;5.22;;;;;;;;;;4960122;28;21471;-59
2021/10/05 05:18:44;;;;;;;11.63;5.50;;;;;;;;;;4960508;28;20635;-61
2021/10/05 05:21:09;;;;;;;11.52;5.40;;;;;;;;;;4993750;28;20768;-60
2021/10/05 05:23:35;;;;;;;13.18;6.35;;;;;;;;;;4961063;28;21099;-60
2021/10/05 05:26:00;;;;;;;14.02;5.45;;;;;;;;;;4943617;28;20077;-61
2021/10/05 05:28:30;;;;;;;9.93;5.47;;;;;;;;;;4961051;28;22378;-60
2021/10/05 05:30:58;;;;;;;9.15;5.10;;;;;;;;;;4964576;28;20041;-60
2021/10/05 05:33:29;;;;;;;8.88;5.25;;;;;;;;;;4973889;28;20086;-60
2021/10/05 05:35:54;;;;;;;9.50;5.35;;;;;;;;;;4962625;28;20047;-60
2021/10/05 05:38:23;;;;;;;12.65;5.65;;;;;;;;;;4973216;28;20049;-59
2021/10/05 05:40:51;;;;;;;8.20;4.45;;;;;;;;;;4964975;28;20095;-60
2021/10/05 05:43:23;;;;;;;9.55;5.50;;;;;;;;;;4963011;28;20034;-61
2021/10/05 05:45:48;;;;;;;13.80;6.03;;;;;;;;;;4948970;28;20039;-62
2021/10/05 05:48:13;;;;;;;21.90;8.25;;;;;;;;;;4966251;28;20026;-61
2021/10/05 05:50:39;;;;;;;15.55;6.50;;;;;;;;;;4961064;28;20034;-59
2021/10/05 05:53:06;;;;;;;9.20;4.88;;;;;;;;;;4965292;28;20038;-61
2021/10/05 05:55:36;;;;;;;9.68;5.03;;;;;;;;;;4979925;28;21071;-61
2021/10/05 05:58:08;;;;;;;10.57;5.20;;;;;;;;;;4961839;28;20030;-60
2021/10/05 06:00:36;;;;;;;9.25;4.68;;;;;;;;;;4949107;28;20030;-60
2021/10/05 06:03:04;;;;;;;8.18;4.18;;;;;;;;;;4963161;28;20094;-60
2021/10/05 06:05:30;;;;;;;9.00;5.05;;;;;;;;;;4963599;28;20034;-60
2021/10/05 06:07:58;;;;;;;8.73;4.95;;;;;;;;;;4961022;28;20088;-60
2021/10/05 06:10:24;;;;;;;7.63;4.35;;;;;;;;;;4963348;28;20053;-61
2021/10/05 06:12:49;;;;;;;7.45;4.45;;;;;;;;;;4978435;28;20381;-60
2021/10/05 06:15:20;;;;;;;10.60;4.55;;;;;;;;;;4977225;28;20042;-60
2021/10/05 06:17:50;;;;;;;7.40;3.95;;;;;;;;;;4946767;28;20122;-60
2021/10/05 06:20:27;;;;;;;7.65;4.45;;;;;;;;;;4977900;28;20673;-60
2021/10/05 06:22:55;;;;;;;10.02;4.72;;;;;;;;;;4976849;28;20460;-60
2021/10/05 06:25:25;;;;;;;7.35;3.80;;;;;;;;;;4964513;28;20026;-60
2021/10/05 06:27:53;;;;;;;9.43;4.40;;;;;;;;;;4977807;28;20042;-60
2021/10/05 06:30:19;;;;;;;5.80;3.60;;;;;;;;;;4977900;28;20033;-61
2021/10/05 06:32:53;;;;;;;11.90;4.85;;;;;;;;;;4963174;28;20047;-60
2021/10/05 06:35:30;;;;;;;11.40;4.30;;;;;;;;;;4958150;28;20793;-60
2021/10/05 06:37:58;;;;;;;9.73;4.00;;;;;;;;;;4979262;28;20576;-59
2021/10/05 06:40:26;;;;;;;7.20;4.65;;;;;;;;;;4960826;28;20054;-61
2021/10/05 06:42:52;;;;;;;6.95;4.50;;;;;;;;;;4977139;28;20034;-60
2021/10/05 06:45:20;;;;;;;11.10;3.95;;;;;;;;;;4963290;28;20110;-60
2021/10/05 06:47:51;;;;;;;4.90;3.58;;;;;;;;;;4978527;28;20056;-61
2021/10/05 06:50:17;;;;;;;5.55;3.38;;;;;;;;;;4962291;28;20034;-60
2021/10/05 06:52:42;;;;;;;7.22;3.63;;;;;;;;;;4962700;28;20034;-60
2021/10/05 06:55:09;;;;;;;6.72;3.85;;;;;;;;;;4977216;28;20648;-61
2021/10/05 06:57:34;;;;;;;7.95;3.33;;;;;;;;;;4962505;28;20046;-59
2021/10/05 07:00:04;;;;;;;4.97;3.00;;;;;;;;;;4961510;28;20058;-59
2021/10/05 07:02:30;;;;;;;4.97;3.28;;;;;;;;;;4945238;28;20031;-59
2021/10/05 07:04:55;;;;;;;4.00;2.50;;;;;;;;;;4978217;28;20995;-59
2021/10/05 07:07:24;;;;;;;7.10;3.30;;;;;;;;;;4976723;28;20520;-59
2021/10/05 07:09:52;;;;;;;7.32;2.60;;;;;;;;;;4963911;28;20565;-60
2021/10/05 07:12:19;;;;;;;9.13;2.50;;;;;;;;;;4962462;28;20034;-61
2021/10/05 07:14:47;;;;;;;3.65;2.25;;;;;;;;;;4977626;28;20211;-59
2021/10/05 07:17:13;;;;;;;4.45;2.30;;;;;;;;;;4976849;28;20377;-59
2021/10/05 07:19:39;;;;;;;2.15;1.73;;;;;;;;;;4946758;28;20033;-59
2021/10/05 07:22:07;;;;;;;2.67;1.98;;;;;;;;;;4979610;28;20038;-59
2021/10/05 07:24:32;;;;;;;2.17;1.70;;;;;;;;;;4962566;28;20053;-59
2021/10/05 07:26:58;;;;;;;4.65;1.80;;;;;;;;;;4978830;28;20043;-60
2021/10/05 07:29:26;;;;;;;3.08;1.75;;;;;;;;;;4976422;28;20038;-60
2021/10/05 07:31:51;;;;;;;4.07;1.80;;;;;;;;;;4977451;28;20608;-59
2021/10/05 07:34:20;;;;;;;6.85;1.73;;;;;;;;;;4977098;28;20113;-59
2021/10/05 07:36:48;;;;;;;2.33;1.50;;;;;;;;;;4939662;28;20038;-60
2021/10/05 07:39:19;;;;;;;3.17;1.55;;;;;;;;;;4977163;28;20129;-60
2021/10/05 07:41:47;;;;;;;6.45;1.77;;;;;;;;;;4976770;28;20874;-60
2021/10/05 07:44:12;;;;;;;2.28;1.40;;;;;;;;;;4962603;28;20042;-61
2021/10/05 07:46:41;;;;;;;4.35;2.03;;;;;;;;;;4965685;28;20255;-60
2021/10/05 07:49:09;;;;;;;3.00;1.35;;;;;;;;;;4959992;28;20833;-59
2021/10/05 07:51:37;;;;;;;1.52;1.42;;;;;;;;;;4947913;28;20042;-60
2021/10/05 07:54:04;;;;;;;5.95;1.70;;;;;;;;;;4960078;28;20035;-60
2021/10/05 07:56:33;;;;;;;3.33;1.70;;;;;;;;;;4978147;28;20042;-60
2021/10/05 07:59:01;;;;;;;3.25;1.40;;;;;;;;;;4976417;28;20030;-59
2021/10/05 08:01:27;;;;;;;2.05;1.23;;;;;;;;;;4961319;28;20050;-62
2021/10/05 08:03:53;;;;;;;6.30;1.80;;;;;;;;;;4963747;28;20408;-61
2021/10/05 08:06:23;;;;;;;3.45;1.40;;;;;;;;;;4994632;28;20625;-61
2021/10/05 08:08:51;;;;;;;1.92;1.45;;;;;;;;;;4976507;28;20696;-62
2021/10/05 08:11:19;;;;;;;4.55;1.23;;;;;;;;;;4960183;28;20038;-60
2021/10/05 08:13:48;;;;;;;2.22;1.40;;;;;;;;;;4977661;28;20481;-60
2021/10/05 08:16:14;;;;;;;3.03;1.67;;;;;;;;;;4961887;28;20043;-61
2021/10/05 08:18:44;;;;;;;3.22;1.40;;;;;;;;;;4960685;28;20061;-60
2021/10/05 08:21:16;;;;;;;4.97;1.30;;;;;;;;;;4963247;28;20045;-60
2021/10/05 08:23:43;;;;;;;3.55;1.30;;;;;;;;;;4948227;28;20034;-61
2021/10/05 08:26:08;;;;;;;2.72;1.50;;;;;;;;;;4976768;28;20744;-60
2021/10/05 08:28:36;;;;;;;4.75;1.40;;;;;;;;;;4961411;28;20108;-60
2021/10/05 08:31:02;;;;;;;2.55;1.48;;;;;;;;;;4961709;28;20903;-60
2021/10/05 08:33:30;;;;;;;2.45;1.20;;;;;;;;;;4963439;28;20045;-61
2021/10/05 08:36:00;;;;;;;2.30;1.33;;;;;;;;;;4958135;28;20031;-60
2021/10/05 08:38:28;;;;;;;2.08;1.35;;;;;;;;;;4977936;28;20057;-60
2021/10/05 08:40:57;;;;;;;2.42;1.48;;;;;;;;;;4965690;28;20034;-62
2021/10/05 08:43:23;;;;;;;3.75;1.48;;;;;;;;;;4966565;28;20045;-59
2021/10/05 08:45:51;;;;;;;2.13;1.38;;;;;;;;;;4962699;28;20030;-60
2021/10/05 08:48:19;;;;;;;5.47;1.63;;;;;;;;;;4965102;28;22409;-60
2021/10/05 08:50:45;;;;;;;2.22;1.13;;;;;;;;;;4966350;28;20092;-61
2021/10/05 08:53:11;;;;;;;2.00;1.67;;;;;;;;;;4950962;28;20082;-62
2021/10/05 08:55:39;;;;;;;2.22;1.60;;;;;;;;;;4979181;28;20037;-60
2021/10/05 08:58:04;;;;;;;2.60;1.33;;;;;;;;;;4965195;28;20049;-61
2021/10/05 09:00:31;;;;;;;3.67;1.27;;;;;;;;;;4978871;28;20034;-60
2021/10/05 09:02:58;;;;;;;1.88;1.25;;;;;;;;;;4965214;28;20508;-63
2021/10/05 09:05:25;;;;;;;3.10;1.20;;;;;;;;;;4962050;28;20039;-62
2021/10/05 09:07:52;;;;;;;1.38;1.27;;;;;;;;;;4963246;28;20057;-61
2021/10/05 09:10:20;;;;;;;1.70;1.50;;;;;;;;;;4966399;28;20168;-59
2021/10/05 09:12:49;;;;;;;1.90;1.08;;;;;;;;;;4978516;28;20030;-59
2021/10/05 09:15:16;;;;;;;3.10;1.30;;;;;;;;;;4979546;28;20138;-60
2021/10/05 09:18:10;;;;;;;2.75;1.10;;;;;;;;;;4978327;28;20581;-60
2021/10/05 09:20:38;;;;;;;3.72;1.33;;;;;;;;;;4961855;28;20038;-60
2021/10/05 09:23:04;;;;;;;1.33;1.23;;;;;;;;;;4961211;28;20477;-61
2021/10/05 09:25:31;;;;;;;1.23;0.98;;;;;;;;;;4979127;28;20073;-61
2021/10/05 09:28:01;;;;;;;4.07;1.70;;;;;;;;;;4978727;28;20054;-60
2021/10/05 09:30:29;;;;;;;5.90;1.30;;;;;;;;;;4962347;28;20156;-60
2021/10/05 09:33:05;;;;;;;1.50;1.00;;;;;;;;;;4978351;28;20031;-60
2021/10/05 09:35:46;;;;;;;0.82;0.80;;;;;;;;;;4976813;28;20035;-61
2021/10/05 09:38:16;;;;;;;4.85;1.15;;;;;;;;;;4960367;28;20060;-60
2021/10/05 09:40:55;;;;;;;3.90;1.35;;;;;;;;;;4963629;28;20077;-60
2021/10/05 09:43:22;;;;;;;2.30;1.00;;;;;;;;;;4979429;28;20038;-62
2021/10/05 09:45:48;;;;;;;2.40;1.00;;;;;;;;;;4962251;28;20104;-61
2021/10/05 09:48:20;;;;;;;1.13;0.85;;;;;;;;;;4978452;28;20034;-61
2021/10/05 09:50:48;;;;;;;4.40;1.27;;;;;;;;;;4961857;28;20125;-59
2021/10/05 09:53:17;;;;;;;2.58;1.10;;;;;;;;;;4979402;28;20071;-61
2021/10/05 09:55:49;;;;;;;3.55;1.20;;;;;;;;;;4963715;28;20054;-61
2021/10/05 09:58:15;;;;;;;1.58;0.77;;;;;;;;;;4975828;28;20038;-59
2021/10/05 10:00:45;;;;;;;1.80;0.73;;;;;;;;;;4960271;28;20065;-60
2021/10/05 10:03:11;;;;;;;2.03;0.82;;;;;;;;;;4974583;28;20121;-59
2021/10/05 10:05:38;;;;;;;2.78;0.95;;;;;;;;;;4973254;28;20517;-60
2021/10/05 10:08:04;;;;;;;1.70;1.00;;;;;;;;;;4975470;28;20441;-60
2021/10/05 10:10:31;;;;;;;2.20;1.00;;;;;;;;;;4959832;28;20049;-60
2021/10/05 10:13:00;;;;;;;1.90;0.63;;;;;;;;;;4942910;28;20034;-61
2021/10/05 10:15:29;;;;;;;2.38;1.33;;;;;;;;;;4943912;28;20037;-61
2021/10/05 10:18:05;;;;;;;4.40;0.80;;;;;;;;;;4959060;28;20046;-60
2021/10/05 10:20:31;;;;;;;1.55;0.82;;;;;;;;;;4941614;28;20069;-60
2021/10/05 10:22:59;;;;;;;1.77;0.77;;;;;;;;;;4951528;28;20157;-61
2021/10/05 10:25:29;;;;;;;0.60;0.40;;;;;;;;;;4959348;28;20030;-61
2021/10/05 10:27:56;;;;;;;2.60;0.80;;;;;;;;;;4958792;28;20031;-63
2021/10/05 10:30:26;;;;;;;2.30;0.85;;;;;;;;;;4941541;28;20070;-60
2021/10/05 10:33:02;;;;;;;2.38;0.90;;;;;;;;;;4942783;28;20057;-61
2021/10/05 10:35:32;;;;;;;2.33;0.55;;;;;;;;;;4961051;28;20046;-61
2021/10/05 10:37:58;;;;;;;1.58;0.90;;;;;;;;;;4941807;28;20074;-61
2021/10/05 10:40:36;;;;;;;1.52;0.60;;;;;;;;;;4958796;28;20113;-60
2021/10/05 10:43:14;;;;;;;1.63;0.50;;;;;;;;;;4959804;28;20049;-60
2021/10/05 10:45:46;;;;;;;8.68;0.95;;;;;;;;;;4944304;28;20031;-61
2021/10/05 10:48:23;;;;;;;1.15;0.90;;;;;;;;;;4947224;28;20486;-61
2021/10/05 10:50:49;;;;;;;1.27;0.40;;;;;;;;;;4942731;28;20038;-60
2021/10/05 10:53:29;;;;;;;1.38;0.45;;;;;;;;;;4930578;28;20062;-60
2021/10/05 10:55:57;;;;;;;2.47;0.80;;;;;;;;;;4937858;28;20042;-60
2021/10/05 10:58:36;;;;;;;1.83;0.50;;;;;;;;;;4942990;28;20033;-62
2021/10/05 11:01:01;;;;;;;1.77;0.60;;;;;;;;;;4942786;28;20033;-60
2021/10/05 11:03:28;;;;;;;1.63;0.65;;;;;;;;;;4960293;28;20026;-61
2021/10/05 11:05:56;;;;;;;5.28;0.95;;;;;;;;;;4960145;28;20027;-62
2021/10/05 11:08:21;;;;;;;2.17;0.57;;;;;;;;;;4944912;28;20120;-59
2021/10/05 11:10:47;;;;;;;2.95;0.60;;;;;;;;;;4976465;28;20057;-60
2021/10/05 11:13:13;;;;;;;4.55;0.50;;;;;;;;;;4958472;28;20084;-59
2021/10/05 11:15:44;;;;;;;3.75;0.57;;;;;;;;;;4975921;28;20273;-60
2021/10/05 11:18:17;;;;;;;1.85;0.52;;;;;;;;;;4959672;28;20035;-60
2021/10/05 11:20:50;;;;;;;5.47;0.65;;;;;;;;;;4965532;28;20026;-60
2021/10/05 11:23:25;;;;;;;1.42;0.50;;;;;;;;;;4975463;28;20033;-61
2021/10/05 11:25:55;;;;;;;0.98;0.60;;;;;;;;;;4978070;28;20061;-61
2021/10/05 11:28:22;;;;;;;1.58;0.63;;;;;;;;;;4975534;28;20042;-61
2021/10/05 11:30:54;;;;;;;2.13;0.80;;;;;;;;;;4961813;28;20164;-61
2021/10/05 11:33:27;;;;;;;3.45;0.73;;;;;;;;;;4965719;28;20044;-61
2021/10/05 11:35:54;;;;;;;3.30;0.60;;;;;;;;;;4960044;28;20030;-62
2021/10/05 11:38:20;;;;;;;2.00;0.50;;;;;;;;;;4958585;28;20026;-65
2021/10/05 11:40:53;;;;;;;1.33;0.60;;;;;;;;;;4973979;28;20054;-62
2021/10/05 11:43:49;;;;;;;5.78;1.35;;;;;;;;;;4974627;28;22063;-61
2021/10/05 11:46:20;;;;;;;2.13;0.52;;;;;;;;;;4975967;28;20134;-61
2021/10/05 11:48:50;;;;;;;4.90;0.88;;;;;;;;;;4974564;28;20066;-62
2021/10/05 11:51:18;;;;;;;1.75;0.55;;;;;;;;;;4962644;28;20057;-61
2021/10/05 11:53:46;;;;;;;7.78;0.80;;;;;;;;;;4960546;28;20038;-61
2021/10/05 11:56:14;;;;;;;1.75;0.70;;;;;;;;;;4961507;28;20034;-61
2021/10/05 11:58:48;;;;;;;1.48;0.47;;;;;;;;;;4960054;28;20031;-61
2021/10/05 12:01:17;;;;;;;1.60;0.50;;;;;;;;;;4960484;28;20049;-61
2021/10/05 12:03:46;;;;;;;2.85;0.40;;;;;;;;;;4974901;28;20046;-60
2021/10/05 12:06:25;;;;;;;1.42;0.70;;;;;;;;;;4976293;28;20805;-61
2021/10/05 12:08:50;;;;;;;1.70;0.57;;;;;;;;;;4976109;28;20130;-61
2021/10/05 12:11:18;;;;;;;3.05;0.43;;;;;;;;;;4961906;28;20046;-60
2021/10/05 12:13:45;;;;;;;2.10;0.70;;;;;;;;;;4976968;28;20030;-59
2021/10/05 12:16:17;;;;;;;2.35;0.63;;;;;;;;;;4966260;28;20022;-61
2021/10/05 12:18:43;;;;;;;2.65;0.70;;;;;;;;;;4980704;28;20109;-61
2021/10/05 12:21:12;;;;;;;3.63;0.88;;;;;;;;;;4963574;28;20034;-62
2021/10/05 12:23:48;;;;;;;3.13;0.68;;;;;;;;;;4965825;28;20069;-62
2021/10/05 12:26:14;;;;;;;2.70;0.57;;;;;;;;;;4979052;28;20030;-60
2021/10/05 12:28:52;;;;;;;1.90;0.68;;;;;;;;;;4964636;28;21212;-61
2021/10/05 12:31:19;;;;;;;3.70;0.57;;;;;;;;;;4981459;28;20023;-61
2021/10/05 12:33:57;;;;;;;0.73;0.50;;;;;;;;;;4964140;28;20606;-61
2021/10/05 12:36:25;;;;;;;2.85;0.70;;;;;;;;;;4979861;28;20050;-61
2021/10/05 12:38:53;;;;;;;2.30;0.50;;;;;;;;;;4961138;28;20037;-61
2021/10/05 12:41:19;;;;;;;0.75;0.50;;;;;;;;;;4965478;28;20048;-60
2021/10/05 12:43:47;;;;;;;1.88;0.57;;;;;;;;;;4963380;28;20064;-61
2021/10/05 12:46:18;;;;;;;2.05;0.50;;;;;;;;;;4980112;28;20034;-61
2021/10/05 12:48:46;;;;;;;3.65;0.55;;;;;;;;;;4979913;28;20041;-61
2021/10/05 12:51:11;;;;;;;4.07;0.60;;;;;;;;;;4966039;28;20023;-62
2021/10/05 12:53:38;;;;;;;4.78;0.80;;;;;;;;;;4964091;28;20038;-59
2021/10/05 12:56:04;;;;;;;3.40;0.60;;;;;;;;;;4978837;28;20026;-60
2021/10/05 12:58:32;;;;;;;6.57;0.77;;;;;;;;;;4979468;28;20035;-60
2021/10/05 13:01:01;;;;;;;8.93;0.85;;;;;;;;;;4963102;28;20042;-61
2021/10/05 13:03:27;;;;;;;1.55;0.82;;;;;;;;;;4963180;28;20089;-63
2021/10/05 13:05:52;;;;;;;2.60;0.70;;;;;;;;;;4962352;28;20921;-60
2021/10/05 13:08:20;;;;;;;2.67;0.80;;;;;;;;;;4962857;28;20048;-60
2021/10/05 13:10:46;;;;;;;2.67;0.82;;;;;;;;;;4978212;28;20046;-61
2021/10/05 13:13:13;;;;;;;1.95;0.75;;;;;;;;;;4976458;28;20141;-59
2021/10/05 13:15:42;;;;;;;4.05;0.82;;;;;;;;;;4961415;28;20026;-61
2021/10/05 13:18:09;;;;;;;2.15;0.70;;;;;;;;;;4962955;28;20026;-61
2021/10/05 13:20:38;;;;;;;1.63;0.70;;;;;;;;;;4978615;28;20109;-60
2021/10/05 13:23:06;;;;;;;1.98;0.65;;;;;;;;;;4979603;28;20030;-60
2021/10/05 13:25:32;;;;;;;6.53;0.73;;;;;;;;;;4947784;28;20026;-61
2021/10/05 13:27:59;;;;;;;2.90;0.50;;;;;;;;;;4977892;28;20525;-60
2021/10/05 13:30:25;;;;;;;2.85;0.55;;;;;;;;;;4978279;28;20042;-60
2021/10/05 13:32:51;;;;;;;1.15;0.75;;;;;;;;;;4977580;28;20505;-60
2021/10/05 13:35:16;;;;;;;0.88;0.35;;;;;;;;;;4964234;28;22055;-64
2021/10/05 13:37:45;;;;;;;3.22;0.80;;;;;;;;;;4977624;28;20064;-60
2021/10/05 13:40:10;;;;;;;2.88;0.70;;;;;;;;;;4964910;28;20486;-61
2021/10/05 13:42:36;;;;;;;4.35;1.00;;;;;;;;;;4974936;28;20085;-60
2021/10/05 13:45:06;;;;;;;1.65;0.50;;;;;;;;;;4977991;28;20113;-59
2021/10/05 13:47:32;;;;;;;0.85;0.70;;;;;;;;;;4968046;28;20041;-59
2021/10/05 13:50:00;;;;;;;1.88;0.75;;;;;;;;;;4977248;28;20026;-60
2021/10/05 13:52:26;;;;;;;1.58;0.80;;;;;;;;;;4965296;28;20030;-60
2021/10/05 13:54:54;;;;;;;3.45;1.00;;;;;;;;;;4977983;28;20027;-59
2021/10/05 13:57:22;;;;;;;1.67;0.80;;;;;;;;;;4960177;28;20137;-59
2021/10/05 13:59:48;;;;;;;2.67;0.93;;;;;;;;;;4963750;28;20033;-60
2021/10/05 14:02:13;;;;;;;8.23;1.55;;;;;;;;;;4960936;28;20114;-59
2021/10/05 14:04:40;;;;;;;3.03;0.60;;;;;;;;;;4961580;28;20042;-60
2021/10/05 14:07:05;;;;;;;1.70;1.00;;;;;;;;;;4962697;28;20425;-59
2021/10/05 14:09:31;;;;;;;1.33;0.63;;;;;;;;;;4976988;28;20073;-60
2021/10/05 14:11:56;;;;;;;3.58;0.80;;;;;;;;;;4979832;28;20818;-60
2021/10/05 14:14:22;;;;;;;1.63;0.93;;;;;;;;;;4963782;28;20042;-60
2021/10/05 14:16:50;;;;;;;6.47;0.95;;;;;;;;;;4943090;28;20027;-59
2021/10/05 14:19:16;;;;;;;3.42;0.80;;;;;;;;;;4965738;28;20030;-60
2021/10/05 14:21:42;;;;;;;0.70;0.70;;;;;;;;;;4964102;28;20512;-60
2021/10/05 14:24:07;;;;;;;3.53;0.93;;;;;;;;;;4959001;28;20038;-59
2021/10/05 14:26:33;;;;;;;1.40;0.95;;;;;;;;;;4964679;28;20113;-59
2021/10/05 14:29:03;;;;;;;4.47;0.80;;;;;;;;;;4963347;28;20050;-59
2021/10/05 14:31:33;;;;;;;1.80;0.57;;;;;;;;;;4963277;28;20026;-61
2021/10/05 14:33:59;;;;;;;4.60;1.15;;;;;;;;;;4961182;28;21953;-63
2021/10/05 14:36:30;;;;;;;1.25;0.68;;;;;;;;;;4957497;28;20041;-61
2021/10/05 14:38:55;;;;;;;1.50;0.80;;;;;;;;;;4962354;28;20034;-61
2021/10/05 14:41:25;;;;;;;0.47;0.47;;;;;;;;;;4978416;28;20438;-59
2021/10/05 14:43:54;;;;;;;2.67;0.90;;;;;;;;;;4975695;28;20042;-61
2021/10/05 14:46:22;;;;;;;5.55;0.82;;;;;;;;;;4963409;28;20058;-59
2021/10/05 14:48:50;;;;;;;2.25;0.82;;;;;;;;;;4963794;28;20130;-59